Date,TemperatureHighF,TemperatureAvgF,TemperatureLowF,DewpointHighF,DewpointAvgF,DewpointLowF,HumidityHigh,HumidityAvg,HumidityLow,PressureMaxIn,PressureMinIn,WindSpeedMaxMPH,WindSpeedAvgMPH,GustSpeedMaxMPH,PrecipitationSumIn
2013-1-1,48.9,46.3,43.0,46.8,37.9,24.8,95,75,43,30.12,29.95,9,1,9,0.21
2013-1-2,48.9,44.3,39.4,46.1,39.9,34.6,96,85,63,30.22,29.95,7,1,7,0.13
2013-1-3,44.6,39.8,30.6,37.5,34.5,26.6,91,82,71,30.28,30.17,3,1,3,0.00
2013-1-4,51.6,39.7,27.0,26.6,19.3,12.3,85,49,24,30.34,30.21,11,2,11,0.00
2013-1-5,56.7,40.2,29.8,31.4,22.4,12.6,73,53,23,30.40,30.25,8,1,8,0.00
2013-1-6,60.4,44.5,36.5,36.9,33.3,26.7,83,67,40,30.27,30.07,4,1,4,0.00
2013-1-7,62.2,39.7,29.3,33.8,28.0,23.5,85,67,28,30.45,30.20,7,1,7,0.00
2013-1-8,65.5,40.5,27.0,37.6,31.6,22.2,88,73,34,30.49,30.38,4,0,4,0.00
2013-1-9,69.3,49.7,34.0,51.1,41.8,31.1,93,76,52,30.47,30.37,11,1,11,0.00
2013-1-10,51.8,51.1,48.7,48.2,47.4,45.3,89,87,86,30.46,30.43,2,0,2,0.00
2013-1-11,48.9,45.8,40.8,47.3,41.7,34.1,95,86,62,30.46,30.17,3,0,3,0.15
2013-1-12,76.3,58.4,48.9,61.9,54.4,47.3,96,88,59,30.19,30.12,4,0,4,0.00
2013-1-13,77.2,62.1,52.5,62.2,55.1,50.6,95,80,51,30.17,30.07,12,1,12,0.01
2013-1-14,65.7,61.7,54.0,60.7,57.5,51.4,93,86,75,30.19,30.11,4,1,4,0.32
2013-1-15,53.6,44.6,42.8,51.0,42.8,41.2,96,93,90,30.27,30.09,7,2,7,0.08
2013-1-16,49.5,45.0,41.2,48.1,43.8,40.1,97,95,94,30.10,29.99,4,1,4,0.19
2013-1-17,50.0,45.4,32.9,48.7,43.9,30.6,96,94,88,30.18,29.94,11,2,11,0.91
2013-1-18,52.9,36.1,27.9,31.6,26.8,16.2,94,73,29,30.55,30.17,8,1,8,0.28
2013-1-19,62.4,37.4,24.1,29.1,23.8,17.9,87,64,24,30.52,30.17,8,1,8,0.00
2013-1-20,67.5,47.5,31.8,34.4,28.0,21.6,82,52,22,30.17,30.01,13,2,13,0.00
2013-1-21,64.0,43.8,28.0,37.1,22.4,6.9,90,52,18,30.12,29.88,14,2,14,0.00
2013-1-22,42.1,32.7,22.6,13.1,-0.2,-9.4,48,27,17,30.30,29.98,14,2,14,0.00
2013-1-23,44.2,28.2,16.7,14.2,4.4,-10.5,69,42,19,30.39,30.15,13,2,13,0.00
2013-1-24,23.7,23.4,23.0,2.3,2.1,1.6,41,40,40,30.53,30.52,1,0,1,0.00
2013-1-26,27.9,26.7,23.0,23.7,22.1,2.2,85,83,41,30.52,30.36,0,0,1,0.05
2013-1-27,46.2,31.3,21.7,27.1,22.6,18.0,89,72,42,30.62,30.41,7,0,7,0.00
2013-1-28,51.3,41.4,30.9,45.5,32.6,24.3,83,72,52,30.52,30.25,12,2,12,0.02
2013-1-29,78.1,59.7,49.3,53.8,49.1,45.5,88,71,43,30.26,30.09,11,3,12,0.00
2013-1-30,71.2,69.0,60.8,61.9,59.3,52.7,89,72,65,30.10,29.42,25,7,25,0.19
2013-1-31,62.4,47.0,33.6,55.7,25.3,7.3,86,48,20,30.03,29.48,24,6,24,0.13
2013-2-1,42.8,35.5,24.8,26.6,10.1,-8.6,63,40,17,30.41,29.88,18,5,18,0.00
2013-2-2,46.6,33.1,18.3,31.9,5.9,-5.0,70,36,18,30.42,30.05,13,2,13,0.00
2013-2-3,53.4,41.1,33.6,33.6,25.9,18.5,85,59,30,30.05,29.87,14,3,14,0.00
2013-2-4,52.7,38.5,25.5,25.3,17.6,7.6,74,47,21,30.17,30.02,12,2,12,0.00
2013-2-5,66.6,46.8,37.9,33.2,28.8,19.5,75,53,23,30.03,29.91,11,2,11,0.00
2013-2-6,67.6,45.0,30.7,36.3,24.7,9.3,86,55,14,30.31,29.99,10,1,10,0.00
2013-2-7,47.1,40.3,33.6,40.8,33.4,24.3,95,77,60,30.37,30.03,8,1,8,0.50
2013-2-8,50.7,44.5,41.2,42.5,31.9,25.9,97,64,50,30.07,29.88,11,4,11,0.31
2013-2-9,59.2,40.3,28.6,26.5,18.3,5.8,77,48,17,30.38,30.06,10,2,10,0.00
2013-2-10,59.4,38.5,24.1,38.2,20.2,8.6,85,55,19,30.51,30.22,7,1,7,0.05
2013-2-11,46.6,44.5,42.6,43.9,41.4,38.4,91,89,85,30.23,30.14,4,0,4,0.00
2013-2-12,50.2,49.6,46.6,44.1,36.8,33.5,91,62,56,30.14,29.97,3,0,3,0.06
2013-2-14,49.5,36.8,32.4,37.1,30.8,27.8,84,79,63,30.08,29.97,2,0,2,0.39
2013-2-15,32.2,30.7,29.7,27.9,27.1,26.5,88,86,84,30.10,30.06,2,0,2,0.00
2013-2-16,44.8,35.9,30.0,33.8,31.2,23.1,95,84,62,30.00,29.86,8,1,8,0.20
2013-2-17,41.7,29.8,22.3,23.1,9.0,-3.8,75,45,18,30.30,29.94,10,1,10,0.00
2013-2-18,56.7,35.2,16.9,24.4,14.1,6.4,78,47,17,30.43,30.26,7,1,7,0.00
2013-2-19,50.4,41.7,32.0,48.2,36.3,22.8,96,82,56,30.26,29.88,11,2,11,0.19
2013-2-20,56.1,40.2,28.2,36.4,16.9,3.8,96,45,16,30.17,29.99,14,2,14,0.00
2013-2-21,60.4,40.5,25.2,24.4,15.5,8.2,65,40,17,30.28,30.14,7,2,7,0.00
2013-2-22,41.7,36.0,32.2,33.4,29.1,19.4,91,77,41,30.37,30.15,4,1,4,0.21
2013-2-23,43.5,39.8,35.8,41.6,38.1,33.4,98,94,91,30.14,29.84,5,1,5,0.34
2013-2-24,68.7,49.5,37.8,45.7,34.1,11.3,97,65,15,30.07,29.81,11,2,11,0.00
2013-2-25,43.5,37.3,32.0,30.0,22.0,18.0,73,56,40,30.25,30.06,9,1,9,0.00
2013-2-26,54.9,43.3,34.0,54.0,38.6,22.3,99,85,58,30.18,29.59,8,2,8,0.74
2013-2-27,63.9,49.8,42.1,44.2,37.6,28.5,98,69,32,29.81,29.64,14,3,14,0.00
2013-2-28,52.7,42.6,33.4,38.4,29.4,21.6,89,62,31,29.88,29.72,13,2,13,0.00
2013-3-1,49.3,40.4,29.8,28.6,25.2,21.0,80,57,36,29.94,29.85,9,2,11,0.00
2013-3-2,50.0,39.3,30.0,28.4,22.2,15.3,74,53,34,29.95,29.83,8,2,8,0.00
2013-3-3,51.1,36.1,28.2,18.4,14.8,8.4,62,45,21,30.00,29.86,11,3,11,0.00
2013-3-4,56.7,37.0,24.8,20.6,10.5,1.3,61,39,16,30.13,29.99,14,2,14,0.00
2013-3-5,47.1,40.9,33.1,43.2,32.9,20.5,97,76,42,30.10,29.58,4,1,4,0.33
2013-3-6,47.8,41.6,36.0,41.8,30.8,23.7,98,68,46,30.06,29.54,21,6,21,0.04
2013-3-7,37.9,37.7,37.2,27.1,26.8,24.8,66,65,61,30.07,30.05,7,4,7,0.00
2013-3-8,61.2,44.5,32.0,26.7,20.1,11.0,65,43,19,30.32,30.06,12,3,12,0.00
2013-3-9,72.9,47.0,32.4,30.1,22.2,6.2,72,47,11,30.37,30.25,8,1,8,0.00
2013-3-10,74.8,49.7,30.4,37.6,22.3,3.4,86,48,10,30.35,30.22,8,1,8,0.00
2013-3-11,71.2,53.8,35.2,52.1,40.4,26.8,78,62,45,30.27,29.96,11,2,11,0.00
2013-3-12,70.7,58.0,49.3,59.4,42.6,29.1,97,59,39,29.99,29.78,8,2,8,0.66
2013-3-13,58.8,46.4,33.3,35.3,23.5,13.6,86,46,19,30.16,29.97,14,4,14,0.00
2013-3-14,59.4,45.4,30.4,19.4,12.3,4.7,54,31,16,30.26,30.12,12,4,12,0.00
2013-3-15,62.6,45.5,27.3,31.8,24.4,17.2,68,48,30,30.19,29.93,8,1,8,0.00
2013-3-16,79.7,67.6,42.8,50.0,43.0,31.8,81,47,28,29.94,29.67,17,4,17,0.00
2013-3-17,68.0,48.8,40.1,50.8,43.3,36.0,91,82,53,30.20,29.83,8,2,8,0.00
2013-3-18,41.4,39.2,37.6,40.9,38.2,36.6,99,97,91,30.23,29.86,6,2,6,0.21
2013-3-19,71.2,49.1,39.7,44.9,30.6,2.1,99,71,10,29.95,29.84,11,3,11,0.00
2013-3-20,60.4,46.1,36.3,25.0,10.9,0.1,61,29,16,30.14,29.81,11,2,11,0.00
2013-3-21,47.5,39.1,30.6,35.2,14.0,-2.2,89,42,18,30.00,29.76,13,4,13,0.01
2013-3-22,56.8,37.4,24.1,11.3,7.0,-0.2,56,34,16,30.10,29.98,11,3,11,0.00
2013-3-23,57.0,43.4,35.8,31.9,27.3,9.5,74,56,24,30.08,29.92,4,0,4,0.00
2013-3-24,41.0,38.2,35.8,38.8,35.0,31.9,95,88,72,29.90,29.61,8,1,8,0.71
2013-3-25,51.1,40.8,34.5,38.3,27.9,17.0,97,67,31,29.84,29.58,21,4,21,0.01
2013-3-26,39.2,38.7,37.9,23.7,23.0,21.9,57,54,52,29.86,29.83,9,3,9,0.00
2013-3-27,56.5,42.6,33.8,26.4,20.8,12.3,66,45,19,30.25,30.13,17,4,17,0.00
2013-3-28,60.8,44.9,33.6,27.1,21.4,15.3,64,43,19,30.31,30.17,11,3,11,0.00
2013-3-29,64.8,45.5,28.6,30.2,23.0,10.9,80,49,16,30.35,30.19,11,1,11,0.00
2013-3-30,63.7,47.4,38.3,41.5,34.3,29.0,77,62,35,30.27,30.11,4,0,4,0.00
2013-3-31,70.3,57.0,48.0,55.3,49.8,41.3,98,79,55,30.13,29.83,13,2,13,0.34
2013-4-1,76.3,61.7,52.5,54.4,44.3,28.5,98,63,23,29.96,29.83,14,2,14,0.00
2013-4-2,64.6,51.5,34.2,40.2,20.5,8.0,86,39,14,30.19,29.96,11,3,11,0.00
2013-4-3,64.8,48.9,33.1,30.1,17.0,6.0,69,36,13,30.32,30.17,9,2,9,0.00
2013-4-4,53.4,43.5,39.0,39.2,30.2,21.1,97,64,35,30.39,30.07,8,2,8,0.00
2013-4-5,69.3,55.2,38.7,47.1,41.7,34.1,99,66,33,30.08,29.90,9,2,9,0.00
2013-4-6,65.3,50.8,40.1,40.2,31.3,19.8,77,52,22,30.27,30.01,3,0,3,0.00
2013-4-7,76.5,57.3,37.0,43.8,37.0,31.7,87,53,24,30.30,30.13,14,2,14,0.00
2013-4-8,84.7,71.0,48.2,54.3,49.8,43.1,89,52,30,30.20,30.07,14,3,14,0.00
2013-4-9,84.7,67.4,58.3,56.8,54.5,50.6,89,67,34,30.20,30.07,8,2,8,0.00
2013-4-10,92.1,75.2,59.0,61.1,56.8,54.1,88,56,30,30.13,29.95,11,2,11,0.00
2013-4-11,84.7,72.8,63.1,65.5,58.2,53.6,86,63,40,30.02,29.81,12,3,12,0.00
2013-4-12,82.0,73.5,66.2,66.3,58.8,49.1,95,65,40,29.83,29.63,10,2,10,0.00
2013-4-13,79.5,64.6,49.6,51.9,37.9,28.0,71,43,20,30.04,29.72,11,2,11,0.00
2013-4-14,88.3,58.3,44.2,50.3,40.7,20.6,90,64,12,30.14,30.03,5,1,5,0.00
2013-4-15,77.0,64.4,57.0,57.5,55.7,52.7,94,75,47,30.25,30.05,5,0,5,0.00
2013-4-16,81.0,67.3,60.1,60.4,57.5,55.0,91,73,42,30.34,30.22,5,1,5,0.00
2013-4-17,85.6,70.3,57.7,63.5,60.3,56.0,95,73,45,30.26,30.13,8,1,8,0.00
2013-4-18,84.6,71.7,61.7,63.2,58.7,55.4,88,66,40,30.23,30.06,6,1,6,0.00
2013-4-19,82.8,71.0,64.9,67.9,64.5,60.9,97,81,54,30.06,29.73,17,2,17,0.00
2013-4-20,70.2,56.1,44.8,63.8,38.5,25.6,96,57,19,30.30,29.83,9,2,9,0.00
2013-4-21,69.8,52.5,40.8,41.7,37.1,31.4,94,60,30,30.52,30.30,8,1,8,0.00
2013-4-22,67.3,54.7,37.4,39.7,34.5,29.7,91,52,32,30.50,30.30,7,2,7,0.00
2013-4-23,75.9,58.4,47.1,49.4,46.0,43.2,93,68,37,30.32,30.14,3,0,4,0.00
2013-4-24,79.3,63.8,45.9,55.9,51.7,44.8,97,68,40,30.17,29.99,11,2,11,0.00
2013-4-25,80.1,64.1,50.5,54.6,39.6,30.5,80,45,23,30.30,30.03,6,2,6,0.00
2013-4-26,79.5,60.9,42.4,45.8,35.8,19.5,94,51,16,30.45,30.29,9,1,9,0.00
2013-4-27,78.8,59.3,51.8,53.5,46.6,38.0,83,66,31,30.40,30.27,5,0,5,0.00
2013-4-28,60.4,57.3,54.5,55.7,51.2,46.6,97,81,62,30.29,30.13,2,0,2,0.00
2013-4-29,78.4,64.2,54.7,64.0,59.8,53.8,99,87,57,30.14,29.99,4,0,4,0.01
2013-4-30,67.1,61.1,55.0,59.6,57.4,53.0,98,88,73,30.20,30.01,4,0,4,0.00
2013-5-1,59.2,58.5,55.2,57.1,55.9,53.5,94,91,88,30.34,30.19,7,1,7,0.00
2013-5-2,62.8,59.4,55.6,57.3,55.7,53.8,96,88,81,30.36,30.28,5,1,5,0.00
2013-5-3,70.2,60.3,49.1,54.0,49.0,38.9,97,69,42,30.30,30.20,9,2,9,0.00
2013-5-4,66.7,57.4,49.6,52.1,48.6,42.8,87,73,59,30.25,30.11,11,2,11,0.00
2013-5-5,59.2,53.1,49.6,54.8,48.1,45.3,91,83,74,30.14,30.02,7,1,7,0.00
2013-5-6,64.8,59.8,55.9,63.6,58.4,53.7,97,95,87,30.04,29.87,6,0,6,0.90
2013-5-7,70.2,57.4,52.5,58.5,53.3,45.8,99,88,45,29.98,29.88,8,0,8,0.00
2013-5-8,69.8,60.8,53.1,59.6,56.7,50.2,96,87,64,30.04,29.95,4,0,4,0.04
2013-5-9,86.4,71.8,53.1,62.4,55.6,51.7,99,63,37,30.09,30.02,8,1,8,0.01
2013-5-10,88.9,76.0,56.3,62.7,58.1,51.8,95,59,32,30.09,29.97,8,1,8,0.01
2013-5-11,81.9,71.0,66.6,64.9,60.1,56.0,93,70,45,29.98,29.82,11,1,11,0.08
2013-5-12,66.6,59.1,54.0,64.5,42.2,34.3,94,56,39,30.06,29.81,2,0,2,0.00
2013-5-13,54.3,51.0,48.4,41.8,39.8,34.5,78,67,49,30.22,30.06,2,0,2,0.00
2013-5-14,63.5,61.2,49.6,41.0,40.4,39.7,69,49,45,30.21,30.10,1,0,1,0.00
2013-5-15,85.8,66.0,55.9,58.4,49.0,40.0,64,57,42,30.12,30.01,7,2,7,0.00
2013-5-16,86.7,75.3,62.8,63.2,59.4,54.8,87,60,40,30.01,29.92,6,1,7,0.00
2013-5-17,71.1,68.0,63.9,60.9,60.0,58.9,85,76,69,30.02,30.00,1,0,1,0.00
2013-5-24,72.9,65.2,52.0,65.2,51.6,36.0,94,65,26,30.22,29.84,11,2,11,0.00
2013-5-25,81.7,58.9,43.2,49.1,39.4,26.1,90,56,18,30.29,30.16,6,1,6,0.00
2013-5-26,80.1,61.1,47.5,52.1,44.5,36.8,85,59,22,30.31,30.20,7,1,7,0.00
2013-5-27,86.9,66.7,50.5,56.6,51.5,46.3,93,63,30,30.31,30.18,5,1,5,0.00
2013-5-28,87.4,73.7,61.2,64.6,60.8,54.0,90,66,44,30.28,30.17,8,1,8,0.00
2013-5-29,89.1,75.8,63.1,64.4,61.8,58.9,91,65,40,30.27,30.18,9,1,9,0.00
2013-5-30,81.7,73.6,69.4,64.5,63.0,59.7,84,71,50,30.22,30.20,0,0,0,0.00
2013-5-31,74.3,72.4,70.3,65.7,65.1,63.8,82,78,72,30.23,30.14,4,0,4,0.00
2013-6-1,80.4,77.6,73.2,67.2,66.0,64.6,76,68,65,30.15,30.07,4,2,4,0.00
2013-6-2,84.2,77.5,72.1,68.7,65.1,63.0,89,68,53,30.08,29.94,6,1,6,0.09
2013-6-3,72.1,69.9,66.7,69.5,67.7,65.3,96,93,89,29.99,29.96,3,0,3,0.73
2013-6-4,72.1,68.1,66.2,65.6,64.3,63.0,96,88,75,30.13,29.97,0,0,0,0.01
2013-6-5,73.4,69.4,65.1,63.7,62.1,60.2,93,79,67,30.14,30.05,0,0,0,0.00
2013-6-6,71.8,68.6,65.8,70.3,65.0,60.4,96,89,69,30.07,29.87,5,0,5,0.87
2013-6-7,71.2,70.9,70.7,70.2,69.8,69.5,97,96,96,29.88,29.73,2,0,2,3.38
2013-6-8,82.4,72.8,66.4,69.5,67.3,63.8,98,85,55,30.10,29.79,6,1,6,0.12
2013-6-9,89.1,81.0,71.6,73.1,69.1,65.2,91,70,48,30.19,30.08,5,1,5,0.14
2013-6-10,74.8,74.1,71.6,72.7,71.2,68.1,93,91,89,30.14,29.93,6,1,6,1.09
2013-6-11,77.7,75.8,73.4,70.3,66.7,65.9,90,74,70,29.97,29.94,2,0,4,1.09
2013-6-12,74.1,70.1,68.4,65.9,65.0,64.4,88,84,76,29.99,29.96,0,0,0,0.00
2013-6-13,97.5,81.3,68.9,74.6,70.6,61.4,93,74,40,29.91,29.19,11,1,11,0.07
2013-6-14,76.6,70.9,65.8,66.6,59.7,57.3,92,70,54,29.51,29.24,2,0,2,0.07
2013-6-15,86.4,68.8,61.7,60.8,59.4,57.1,91,76,41,29.64,29.51,4,0,4,0.00
2013-6-16,87.3,76.7,66.7,66.3,63.6,57.9,88,67,41,29.64,29.52,6,2,6,0.00
2013-6-17,77.0,76.4,76.1,70.4,67.9,65.8,81,76,71,29.55,29.48,2,0,2,0.00
2013-6-18,76.5,72.8,71.6,70.1,68.1,67.5,87,85,81,29.49,29.41,2,0,2,0.00
2013-6-19,82.4,72.2,64.8,69.9,66.0,63.9,97,82,57,30.16,29.92,4,0,4,0.00
2013-6-20,85.5,73.2,64.8,65.4,62.4,58.3,94,72,43,30.29,30.16,4,1,4,0.00
2013-6-21,66.2,64.7,62.8,61.2,58.9,55.7,84,82,78,30.28,30.26,0,0,0,0.00
2013-6-23,89.6,81.3,62.8,74.2,70.6,55.7,89,72,51,30.26,30.16,4,1,4,0.08
2013-6-24,89.1,77.7,72.0,75.6,70.7,68.0,92,81,56,30.25,30.13,7,1,8,0.02
2013-6-25,92.8,78.7,70.0,73.6,69.6,67.1,92,76,49,30.17,30.04,6,1,6,0.00
2013-6-26,94.3,79.6,69.6,72.6,69.9,64.8,91,75,48,30.08,29.92,8,1,8,0.44
2013-6-27,84.7,77.4,69.1,73.8,71.2,66.9,95,82,69,30.01,29.76,5,1,5,0.09
2013-6-28,77.0,75.3,74.1,72.6,72.2,69.1,92,90,86,29.79,29.70,3,0,3,0.37
2013-6-29,71.6,71.1,70.0,69.9,69.4,68.8,96,95,92,29.72,29.66,2,0,2,0.27
2013-6-30,86.5,75.3,68.5,77.0,71.0,66.2,96,87,62,29.87,29.70,4,1,4,2.13
2013-7-1,87.1,77.9,68.4,73.9,72.0,66.2,97,83,63,30.00,29.86,4,0,4,2.95
2013-7-3,81.0,75.1,73.8,74.5,73.0,72.5,97,94,81,30.25,30.18,3,0,3,3.20
2013-7-6,89.2,86.8,85.1,72.7,71.4,70.0,66,62,55,30.18,30.16,1,0,1,3.38
2013-7-7,92.1,81.7,73.2,74.8,72.6,71.1,94,76,54,30.22,30.11,7,1,7,3.41
2013-7-8,80.8,76.2,72.9,73.9,72.0,71.1,95,87,79,30.19,30.16,3,0,3,0.61
2013-7-9,78.3,75.0,73.0,74.7,71.5,69.9,92,89,83,30.19,30.12,2,0,2,0.73
2013-7-10,73.9,73.8,73.8,71.8,70.8,69.9,93,90,88,30.14,30.09,3,0,3,0.00
2013-7-11,79.2,74.9,72.9,75.1,72.8,71.3,97,94,83,30.02,29.92,4,0,4,0.33
2013-7-12,75.0,72.3,70.3,72.2,70.0,68.5,96,93,87,30.07,29.91,4,0,4,0.02
2013-7-13,77.9,73.5,70.0,75.5,71.3,67.9,95,93,89,30.23,30.05,3,0,3,0.08
2013-7-14,91.2,78.6,71.1,76.5,72.4,69.9,96,83,53,30.34,30.22,4,0,4,0.01
2013-7-15,95.4,79.0,69.4,75.6,70.6,67.4,95,79,42,30.36,30.30,3,0,3,0.00
2013-7-16,84.9,79.1,77.5,76.8,75.2,74.0,93,88,76,30.26,30.23,3,0,3,0.17
2013-7-17,81.0,78.1,77.0,76.5,75.4,74.8,94,92,85,30.24,30.18,2,0,2,0.01
2013-7-18,80.4,78.3,77.7,76.5,74.8,74.5,90,89,88,30.18,30.16,1,0,1,0.00
2013-7-19,88.3,84.5,77.7,74.5,72.6,71.9,90,69,60,30.16,30.02,7,1,7,0.00
2013-7-20,87.1,80.8,77.5,74.7,72.8,71.9,85,77,66,30.06,30.01,7,1,7,0.00
2013-7-21,82.8,79.0,77.0,73.5,72.7,71.7,85,81,74,30.03,29.99,8,1,8,0.00
2013-7-22,82.9,76.6,72.9,73.6,71.7,70.5,93,86,71,30.02,29.86,2,0,3,0.04
2013-7-23,84.0,77.9,75.4,73.1,72.8,71.8,92,85,69,29.88,29.77,0,0,0,0.02
2013-7-24,87.4,80.8,76.1,71.8,70.6,69.5,83,72,61,29.89,29.78,2,0,2,0.01
2013-7-25,77.5,74.6,67.6,70.1,68.5,66.0,95,82,74,30.02,29.88,5,0,5,0.13
2013-7-26,82.2,80.4,74.1,67.4,65.4,64.5,80,62,58,30.08,30.02,0,0,0,0.13
2013-7-27,81.3,79.2,78.6,69.0,67.8,64.5,73,69,58,30.08,30.05,5,1,5,0.13
2013-7-28,90.9,77.6,69.6,73.6,69.7,65.8,97,80,49,30.05,29.95,10,1,10,0.44
2013-7-29,91.2,76.1,68.5,70.1,66.6,59.7,96,76,39,30.19,30.01,4,0,4,0.12
2013-7-30,92.3,74.5,61.9,70.8,63.8,59.5,93,73,41,30.26,30.17,4,0,4,0.00
2013-7-31,82.8,77.6,71.1,73.1,70.2,67.7,93,79,63,30.17,30.02,13,0,13,0.12
2013-8-1,79.2,75.6,70.7,71.9,70.4,68.1,93,84,79,30.04,29.92,3,1,6,0.20
2013-8-2,77.4,74.9,73.2,72.4,71.3,70.2,93,89,83,30.06,29.94,0,0,0,0.38
2013-8-3,76.5,72.0,70.2,74.3,69.9,68.3,95,93,91,30.05,29.96,2,0,2,0.07
2013-8-4,86.0,79.1,70.7,70.2,64.4,58.8,95,64,46,30.04,29.94,5,0,5,0.08
2013-8-5,78.4,74.4,71.4,68.2,67.1,63.7,84,79,63,30.07,30.03,1,0,1,0.08
2013-8-6,73.4,70.9,67.5,68.2,65.6,63.1,92,84,73,30.10,30.03,3,0,3,0.30
2013-8-7,87.8,77.2,69.1,71.0,68.1,64.2,93,76,50,30.13,30.05,6,1,6,0.00
2013-8-8,85.6,78.7,74.8,73.6,70.7,69.0,84,77,65,30.09,30.03,4,0,4,0.00
2013-8-10,89.6,82.1,73.9,76.8,73.5,70.4,92,76,59,30.12,30.05,11,1,11,0.28
2013-8-11,97.7,76.6,72.5,75.7,72.5,69.7,96,89,47,30.14,30.06,4,0,4,0.05
2013-8-12,87.1,80.7,77.0,75.4,74.0,70.1,91,81,60,30.06,29.97,7,0,7,0.18
2013-8-13,78.3,75.0,72.9,75.0,71.9,70.4,94,90,86,30.03,29.86,6,1,7,0.47
2013-8-14,77.9,74.6,72.5,71.4,64.3,62.1,86,71,62,30.04,29.87,4,1,4,0.47
2013-8-15,73.6,62.1,60.6,63.8,58.7,57.8,92,89,72,30.13,30.05,0,0,3,0.47
2013-8-16,71.1,65.1,58.8,63.5,60.3,57.6,96,85,70,30.22,30.14,2,0,2,0.00
2013-8-17,69.8,64.5,61.3,68.4,62.7,59.3,96,94,93,30.21,30.16,2,0,2,0.04
2013-8-18,81.9,75.8,67.6,69.5,67.8,65.5,95,77,67,30.24,30.17,4,1,4,0.35
2013-8-19,74.7,70.1,66.6,72.2,68.2,64.9,98,94,90,30.23,30.13,3,0,3,0.19
2013-8-20,84.4,73.3,65.1,72.9,69.6,64.5,99,89,65,30.22,30.14,3,0,3,0.00
2013-8-21,89.8,75.5,71.2,78.0,72.5,69.1,97,91,59,30.27,30.14,4,0,4,0.11
2013-8-22,71.4,71.1,70.7,69.6,69.2,68.9,94,94,93,30.18,30.16,0,0,0,0.00
2013-8-23,88.5,76.6,69.3,75.2,70.2,64.6,93,82,57,30.12,29.96,5,1,5,0.00
2013-8-24,87.8,72.3,63.7,64.9,62.3,58.7,93,73,41,30.35,30.11,4,1,4,0.00
2013-8-25,82.6,69.1,59.5,65.7,60.7,56.7,96,77,44,30.43,30.32,5,1,5,0.00
2013-8-26,66.2,63.6,60.1,61.4,60.2,58.0,93,89,84,30.36,30.15,0,0,0,0.00
2013-8-27,67.1,66.6,64.8,61.1,59.7,58.6,88,79,75,30.15,30.11,2,0,2,0.00
2013-8-29,76.3,74.3,66.9,70.3,69.4,58.6,88,85,75,30.11,30.03,0,0,0,0.00
2013-8-30,77.2,73.4,70.0,69.9,68.7,67.5,92,86,79,30.05,29.99,0,0,0,0.00
2013-8-31,85.1,82.1,74.7,72.1,71.2,69.1,83,71,64,30.01,29.98,6,2,6,0.00
2013-9-1,84.6,77.7,73.0,74.3,71.8,70.2,92,83,66,29.98,29.91,8,1,8,0.00
2013-9-2,86.5,77.4,69.6,75.0,71.1,68.9,98,83,64,29.93,29.83,4,0,6,0.72
2013-9-3,86.5,82.3,76.5,73.1,71.8,70.2,89,73,61,29.98,29.84,2,0,2,0.72
2013-9-4,76.3,75.2,74.8,73.2,73.1,72.8,94,93,89,29.98,29.94,0,0,0,0.00
2013-9-5,90.3,74.1,64.4,67.8,63.7,56.6,96,74,35,30.14,30.07,4,0,4,0.00
2013-9-6,85.1,71.2,61.9,65.2,60.7,56.3,92,72,43,30.22,30.12,4,1,4,0.00
2013-9-7,84.6,69.9,58.5,66.5,61.8,57.0,95,78,49,30.18,30.01,4,1,4,0.00
2013-9-8,88.2,71.2,64.4,64.7,62.9,57.9,95,80,41,30.02,29.96,4,1,4,0.00
2013-9-9,86.5,86.0,84.7,66.5,64.8,59.7,53,51,45,30.16,29.97,4,2,4,0.00
2013-9-10,85.6,77.9,76.5,69.3,68.5,65.7,79,74,53,30.23,30.16,2,0,4,0.00
2013-9-11,76.1,71.2,70.2,69.7,67.5,66.9,90,88,81,30.23,30.20,0,0,0,0.00
2013-9-12,90.7,78.2,70.3,72.2,68.9,65.1,86,74,51,30.11,29.84,6,1,6,0.00
2013-9-13,74.7,72.0,69.6,69.1,61.9,58.5,85,71,65,29.88,29.83,1,0,1,0.00
2013-9-15,77.4,64.5,56.1,61.6,57.9,52.6,90,81,53,30.28,29.88,4,0,4,0.00
2013-9-16,86.4,75.0,63.7,69.9,62.8,58.3,94,69,43,30.24,30.08,6,1,6,0.00
2013-9-17,68.4,65.4,58.5,58.1,56.4,52.1,88,74,63,30.32,30.23,3,0,3,0.00
2013-9-19,66.0,62.9,57.4,62.7,58.9,52.5,91,87,65,30.29,30.13,0,0,0,0.00
2013-9-20,70.0,65.0,63.1,66.5,63.3,62.3,97,94,88,30.13,30.03,2,0,2,0.13
2013-9-21,70.5,69.0,65.5,69.4,67.9,64.6,97,96,96,29.80,29.77,4,0,4,0.53
2013-9-22,65.5,64.3,63.5,64.7,63.6,62.6,99,97,97,29.79,29.75,2,0,2,0.18
2013-9-23,73.8,61.8,53.6,57.1,54.1,50.4,95,78,50,30.11,29.94,5,1,6,0.00
2013-9-24,79.2,63.0,53.6,59.8,56.2,52.1,97,81,50,30.14,29.98,4,0,4,0.00
2013-9-25,73.9,62.8,52.0,63.2,58.2,51.4,98,86,58,30.00,29.91,4,0,4,0.00
2013-9-26,78.1,65.5,57.6,61.8,57.8,51.5,96,79,41,30.08,29.91,8,1,8,0.00
2013-9-27,74.3,62.1,53.6,60.8,55.6,52.5,98,81,53,30.23,30.08,6,1,6,0.00
2013-9-28,74.1,60.8,52.2,58.3,54.1,51.1,98,80,53,30.30,30.20,5,1,5,0.00
2013-9-29,76.8,56.8,52.0,58.8,52.9,50.5,98,89,44,30.21,30.07,4,0,4,0.00
2013-9-30,78.3,61.6,51.3,61.0,55.1,50.7,98,82,46,30.14,30.03,4,0,4,0.00
2013-10-1,81.9,67.0,53.6,62.1,58.3,52.8,97,78,47,30.15,30.07,4,1,4,0.00
2013-10-2,84.9,72.6,61.3,62.4,59.5,57.0,93,70,43,30.12,30.08,6,1,6,0.00
2013-10-3,66.7,62.8,61.9,62.0,60.1,59.5,92,91,85,30.14,30.12,0,0,0,0.00
2013-10-4,67.5,64.7,61.9,64.4,62.0,59.5,92,91,90,30.13,30.12,0,0,0,0.00
2013-10-5,72.5,67.8,66.6,67.8,64.8,64.0,92,90,84,30.16,30.12,0,0,0,0.00
2013-10-16,72.3,65.0,61.2,63.2,61.4,59.4,95,88,70,30.10,29.99,2,0,2,0.00
2013-10-17,73.2,67.1,61.3,64.9,62.5,59.8,96,86,69,30.00,29.87,4,1,4,0.00
2013-10-18,72.7,62.5,54.3,65.1,54.0,46.1,94,76,41,30.08,29.91,5,1,5,0.00
2013-10-19,69.1,61.7,57.4,63.6,58.8,55.4,94,91,82,30.01,29.85,4,0,4,0.00
2013-10-20,68.2,54.4,44.2,57.5,46.4,40.3,97,77,42,30.16,29.94,7,0,7,0.00
2013-10-21,70.3,51.7,38.3,52.2,45.0,38.0,99,81,41,30.19,30.04,4,0,4,0.00
2013-10-23,61.0,58.9,56.5,58.4,46.0,32.5,96,69,40,29.89,29.74,11,2,11,0.00
2013-10-24,56.3,45.4,42.1,39.9,35.5,32.9,78,69,43,30.17,29.89,4,1,6,0.00
2013-10-25,56.3,47.4,42.8,39.2,32.7,23.4,78,62,32,30.32,30.17,4,1,4,0.00
2013-10-26,51.3,32.8,30.9,34.2,28.4,27.7,88,84,47,30.34,30.32,0,0,0,0.00
2013-10-27,64.4,50.0,43.2,44.9,39.0,33.8,85,68,36,30.15,30.07,7,0,7,0.00
2013-10-28,63.0,58.9,50.2,54.1,53.3,44.5,90,82,71,30.29,30.12,0,0,0,0.00
2013-11-7,69.6,59.0,52.9,61.3,56.9,51.4,99,93,68,30.14,29.96,8,1,8,0.00
2013-11-14,61.2,41.1,23.5,28.2,21.1,12.6,85,52,17,30.48,30.35,8,1,8,0.00
2013-11-15,61.7,45.4,28.6,44.9,34.3,24.4,89,68,40,30.38,30.23,4,0,4,0.00
2013-11-16,62.8,54.8,47.1,56.4,52.5,44.9,99,92,78,30.30,30.24,4,0,4,0.00
2013-11-17,68.4,61.4,54.3,62.6,58.6,53.5,97,91,76,30.26,29.94,4,0,4,0.00
2013-11-18,63.7,59.7,57.7,62.8,29.5,23.2,97,36,28,29.97,29.92,5,3,5,0.00
2013-11-19,58.6,46.1,41.0,31.4,29.7,26.8,66,54,32,30.31,29.97,3,1,3,0.00
2013-11-20,43.2,41.3,40.5,32.9,29.8,28.0,70,64,60,30.45,30.30,3,1,3,0.00
2013-11-21,52.0,49.9,41.9,44.2,43.3,33.1,82,78,71,30.44,30.42,0,0,0,0.00
2013-11-22,49.1,47.6,47.3,44.8,44.6,43.8,91,90,82,30.43,30.33,0,0,0,0.00
2013-11-23,59.0,57.0,47.3,44.8,39.7,37.5,91,55,47,30.33,30.07,4,2,4,0.00
2013-11-24,59.0,29.6,25.5,37.9,4.6,-8.3,49,38,17,30.54,30.08,9,2,9,0.00
2013-11-25,36.3,30.7,22.5,13.8,8.7,0.4,57,43,24,30.56,30.39,2,0,2,0.00
2013-11-26,64.2,43.0,36.0,63.2,35.0,9.7,99,77,35,30.40,29.63,9,1,9,0.00
2013-11-27,46.4,41.1,32.5,46.1,38.1,16.3,99,90,52,30.04,29.53,13,3,13,0.00
2013-12-1,66.0,48.0,34.7,35.6,30.9,20.4,91,60,23,30.29,30.09,4,1,4,0.00
2013-12-2,45.9,41.7,38.3,40.3,38.6,33.8,95,89,71,30.10,29.88,2,0,2,0.00
2013-12-3,55.9,44.6,32.4,45.9,39.3,31.4,99,83,63,30.01,29.90,6,1,6,0.00
2013-12-4,60.6,54.3,48.0,56.0,51.9,44.3,99,92,81,30.09,30.00,4,0,4,0.00
2013-12-5,58.1,57.1,56.5,57.8,56.7,54.7,99,99,89,30.15,30.08,4,0,4,0.00
2013-12-6,70.9,69.4,68.4,62.9,62.2,61.3,83,78,74,30.04,30.01,5,2,5,0.00
2013-12-7,69.1,54.4,43.0,64.1,47.8,33.0,92,79,68,30.48,30.01,6,2,6,0.00
2013-12-8,43.0,36.2,33.1,33.0,29.8,26.4,95,79,61,30.48,30.33,8,2,8,0.00
2013-12-9,44.6,40.0,33.8,43.9,39.5,32.5,99,98,95,30.33,30.08,4,1,4,0.00
2013-12-10,45.3,44.2,35.4,44.5,42.6,23.5,98,95,60,30.30,29.97,2,0,2,0.00
2013-12-11,35.4,26.5,25.3,24.7,22.5,21.8,86,85,65,30.37,30.30,1,0,2,0.00
2013-12-12,50.7,35.0,25.2,26.7,17.3,4.8,85,53,19,30.44,30.28,8,2,8,0.00
2013-12-13,57.7,35.8,22.8,28.0,19.2,8.4,78,56,18,30.41,30.29,8,1,8,0.00
2013-12-14,46.0,39.5,36.0,41.1,32.4,27.5,99,76,59,30.32,29.89,3,1,3,0.00
2013-12-15,51.6,40.9,36.1,44.4,36.6,24.0,99,87,59,30.09,29.73,9,2,9,0.00
2013-12-16,62.8,41.2,28.8,35.1,29.1,24.7,89,67,29,30.19,30.10,8,1,8,0.00
2013-12-17,67.5,45.1,30.2,39.9,33.0,28.2,96,69,34,30.14,29.89,12,1,12,0.00
2013-12-18,54.5,40.5,31.6,32.2,18.2,6.8,89,47,18,30.29,30.12,12,2,12,0.00
2013-12-19,69.3,44.3,27.0,30.2,22.2,13.4,83,48,12,30.33,30.23,11,2,11,0.00
2013-12-20,69.8,52.9,37.0,53.0,42.6,29.5,86,69,51,30.27,30.13,10,2,10,0.00
2013-12-21,79.2,59.4,44.2,65.3,53.7,43.2,97,83,51,30.18,30.06,11,2,11,0.00
2013-12-22,77.9,70.2,63.9,66.2,63.7,58.8,97,81,60,30.13,30.04,17,3,17,0.00
2013-12-23,65.8,59.8,45.9,65.1,57.1,35.3,99,91,66,30.19,30.02,11,2,11,0.00
2013-12-24,45.7,40.5,28.9,35.6,28.7,9.5,72,64,40,30.48,30.17,8,3,8,0.00
2013-12-25,48.4,28.7,22.3,14.5,8.1,-0.5,67,45,18,30.58,30.43,8,1,8,0.00
2013-12-26,43.2,28.9,22.3,27.2,21.0,14.9,85,73,40,30.42,30.32,4,1,4,0.00
2013-12-27,62.8,38.5,25.0,28.4,18.3,7.2,83,54,17,30.49,30.32,5,1,5,0.00
2013-12-28,63.7,43.4,24.6,37.7,27.2,18.0,85,59,24,30.43,30.18,5,0,5,0.00
2013-12-29,57.9,47.4,42.1,52.3,44.7,36.5,99,91,71,30.19,29.74,15,2,15,0.00
2013-12-30,52.9,41.9,36.3,45.5,38.7,32.8,99,90,64,30.17,29.95,3,0,3,0.00
2013-12-31,53.4,40.6,32.4,34.2,24.5,10.8,88,58,22,30.38,30.15,12,1,12,0.00
2014-1-1,49.5,36.4,31.1,28.6,24.9,19.5,78,66,34,30.45,30.17,6,1,6,0.00
2014-1-2,46.2,39.5,34.9,41.2,33.8,28.1,92,80,68,30.18,29.15,10,0,10,0.00